VK4VP-5 Buderim QLD AU current weather conditions

sailwx.info

Wind from 209 at 1 knots gusting 7

Air temperature 22.2° C
Dewpoint 21.0° C

Last reported at 2016-Feb-06 17:42 UTC.
Time now 2016-Feb-06 18:32 UTC

Location: S 26°42' E 153°05'.
View on Google Maps.

See reports from other nearby stations

  
Tides and Currents Weather Stations Pressure Air Temp Water Temp Dewpoint Dewpoint Depression Visibility Wind Speed Wind Dir Waves Ship Positions
date/time (UTC)wind fromknots sea level pressurealtimeterstation pressurevisibilityair tempwater tempwave heightnotes
2016-Feb-06 17:42 209 1 gusting 7 22.2
2016-Feb-06 17:32 210 1 gusting 5 22.2
2016-Feb-06 17:22 209 1 gusting 8 22.2
2016-Feb-06 17:12 208 2 gusting 8 22.2
2016-Feb-06 17:02 208 2 gusting 8 22.2
2016-Feb-06 16:52 207 2 gusting 7 22.2
2016-Feb-06 16:42 192 1 gusting 8 22.8
2016-Feb-06 16:32 172 1 gusting 6 22.8
2016-Feb-06 16:22 168 0 gusting 5 22.8
2016-Feb-06 16:12 164 0 gusting 6 23.3
2016-Feb-06 16:02 163 23.3
2016-Feb-06 15:52 163 23.9
2016-Feb-06 15:42 163 23.9
2016-Feb-06 15:32 163 24.4
2016-Feb-06 15:22 163 0 gusting 6 24.4
2016-Feb-06 15:12 163 23.9
2016-Feb-06 15:02 163 1 gusting 6 23.9
2016-Feb-06 14:52 162 0 gusting 7 23.9
2016-Feb-06 14:42 161 0 gusting 6 23.9
2016-Feb-06 14:32 163 1 gusting 7 23.9
2016-Feb-06 14:22 159 1 gusting 8 24.4
2016-Feb-06 14:12 165 1 gusting 6 24.4
2016-Feb-06 14:02 163 3 gusting 9 24.4
2016-Feb-06 13:52 175 2 gusting 8 24.4
2016-Feb-06 13:42 176 2 gusting 8 24.4
2016-Feb-06 13:32 164 1 gusting 7 23.9
2016-Feb-06 13:22 157 2 gusting 8 23.9
2016-Feb-06 13:12 186 1 gusting 11 23.9
2016-Feb-06 13:02 167 2 gusting 8 23.9
2016-Feb-06 12:52 161 2 gusting 8 23.9
2016-Feb-06 12:42 161 3 gusting 12 23.3
2016-Feb-06 12:32 166 5 gusting 13 23.3
2016-Feb-06 12:22 156 1 gusting 9 23.3
2016-Feb-06 12:12 152 23.3
2016-Feb-06 12:02 148 23.3
2016-Feb-06 11:52 170 2 gusting 13 23.3
2016-Feb-06 11:42 132 1 gusting 7 23.3
2016-Feb-06 11:32 138 23.3
2016-Feb-06 11:22 133 1 gusting 8 23.3
2016-Feb-06 11:12 173 2 gusting 9 23.9
2016-Feb-06 11:02 171 0 gusting 7 23.9
2016-Feb-06 10:52 176 23.9
2016-Feb-06 10:42 176 23.9
2016-Feb-06 10:32 176 23.9
2016-Feb-06 10:22 176 0 gusting 6 24.4
2016-Feb-06 10:12 173 1 gusting 8 24.4
2016-Feb-06 10:02 168 2 gusting 8 24.4
2016-Feb-06 09:52 171 2 gusting 9 24.4
2016-Feb-06 09:42 166 6 gusting 12 25.0
2016-Feb-06 09:32 162 1 gusting 10 25.0
2016-Feb-06 09:22 164 3 gusting 8 24.4
2016-Feb-06 09:12 155 2 gusting 8 24.4
2016-Feb-06 09:02 159 2 gusting 8 24.4
2016-Feb-06 08:52 154 5 gusting 12 24.4
2016-Feb-06 08:42 141 1 gusting 10 25.6
2016-Feb-06 08:32 137 6 gusting 13 25.6
2016-Feb-06 08:22 148 2 gusting 10 25.6
2016-Feb-06 08:12 155 2 gusting 8 25.6
2016-Feb-06 08:02 143 1 gusting 8 25.6
2016-Feb-06 07:52 150 5 gusting 14 25.6
2016-Feb-06 07:42 149 5 gusting 13 25.6
2016-Feb-06 07:32 147 3 gusting 11 25.6
2016-Feb-06 07:22 145 3 gusting 14 25.6
2016-Feb-06 07:12 160 3 gusting 11 25.6
2016-Feb-06 07:02 148 3 gusting 9 25.6
2016-Feb-06 06:52 146 5 gusting 16 25.6
2016-Feb-06 06:42 138 3 gusting 10 26.1
2016-Feb-06 06:32 142 6 gusting 16 26.1
2016-Feb-06 06:22 155 3 gusting 11 26.1
2016-Feb-06 06:12 152 6 gusting 14 26.1
2016-Feb-06 06:02 141 5 gusting 15 26.1
2016-Feb-06 05:52 150 3 gusting 10 26.7
2016-Feb-06 05:42 149 3 gusting 15 26.7
2016-Feb-06 05:32 153 3 gusting 13 26.7
2016-Feb-06 05:22 159 6 gusting 12 26.7
2016-Feb-06 05:12 154 3 gusting 12 26.7
2016-Feb-06 05:02 139 6 gusting 14 26.7
2016-Feb-06 04:52 152 7 gusting 16 26.7
2016-Feb-06 04:42 138 6 gusting 17 26.7
2016-Feb-06 04:32 133 6 gusting 13 27.2
2016-Feb-06 04:22 136 8 gusting 18 27.2
2016-Feb-06 04:12 150 6 gusting 18 26.7
2016-Feb-06 04:02 132 6 gusting 17 27.2
2016-Feb-06 03:52 147 6 gusting 14 27.2
2016-Feb-06 03:42 156 6 gusting 13 27.2
2016-Feb-06 03:32 146 6 gusting 18 27.2
2016-Feb-06 03:22 147 7 gusting 15 27.2
2016-Feb-06 03:12 154 2 gusting 10 27.2
2016-Feb-06 03:02 139 6 gusting 17 27.2
2016-Feb-06 02:52 144 7 gusting 15 27.2
2016-Feb-06 02:42 138 6 gusting 21 27.2
2016-Feb-06 02:32 133 7 gusting 18 26.7
2016-Feb-06 02:22 132 6 gusting 15 27.2
2016-Feb-06 02:12 136 6 gusting 16 27.2
2016-Feb-06 02:02 142 6 gusting 18 27.2
2016-Feb-06 01:52 130 5 gusting 16 27.2
2016-Feb-06 01:42 139 5 gusting 13 26.7
2016-Feb-06 01:32 155 6 gusting 14 26.7
2016-Feb-06 01:22 140 6 gusting 14 27.2
2016-Feb-06 01:12 157 6 gusting 18 26.7
2016-Feb-06 01:02 149 6 gusting 18 26.7
2016-Feb-06 00:52 141 6 gusting 21 26.7
2016-Feb-06 00:42 140 2 gusting 11 26.7
2016-Feb-06 00:32 146 5 gusting 15 26.1
2016-Feb-06 00:22 143 3 gusting 13 25.0
2016-Feb-06 00:12 157 2 gusting 9 24.4
2016-Feb-06 00:02 139 2 gusting 15 24.4
2016-Feb-05 23:52 141 5 gusting 11 24.4
2016-Feb-05 23:42 140 3 gusting 13 25.0
2016-Feb-05 23:32 161 5 gusting 10 25.0
2016-Feb-05 23:22 156 3 gusting 11 25.0
2016-Feb-05 23:12 154 5 gusting 12 25.0
2016-Feb-05 23:02 154 3 gusting 9 25.0
2016-Feb-05 22:52 151 5 gusting 12 24.4
2016-Feb-05 22:42 156 2 gusting 13 24.4
2016-Feb-05 22:32 153 3 gusting 11 23.3
2016-Feb-05 22:22 173 5 gusting 16 23.3
2016-Feb-05 22:12 200 3 gusting 8 23.3
2016-Feb-05 22:02 172 2 gusting 6 23.3
2016-Feb-05 21:52 169 3 gusting 11 22.8
2016-Feb-05 21:42 171 3 gusting 11 22.8
2016-Feb-05 21:32 189 1 gusting 6 22.8
2016-Feb-05 21:22 190 2 gusting 6 22.8
2016-Feb-05 21:12 191 2 gusting 9 22.8
2016-Feb-05 21:02 189 3 gusting 7 22.8
2016-Feb-05 20:52 194 1 gusting 8 22.2
2016-Feb-05 20:42 196 22.2
2016-Feb-05 20:32 196 0 gusting 6 22.2
2016-Feb-05 20:22 197 1 gusting 6 22.2
2016-Feb-05 20:12 192 2 gusting 8 22.2
2016-Feb-05 20:02 149 1 gusting 7 22.2
2016-Feb-05 19:52 181 0 gusting 8 22.2
2016-Feb-05 19:42 199 22.2
2016-Feb-05 19:32 200 0 gusting 6 22.2
2016-Feb-05 19:22 195 2 gusting 8 22.2
2016-Feb-05 19:12 188 0 gusting 6 22.2
2016-Feb-05 19:02 188 0 gusting 3 22.2
2016-Feb-05 18:52 188 22.2
2016-Feb-05 18:42 189 1 gusting 6 22.2
2016-Feb-05 18:32 193 2 gusting 8 22.2
2016-Feb-05 18:22 196 1 gusting 6 22.2
2016-Feb-05 18:12 196 1 gusting 6 22.2
2016-Feb-05 18:02 192 2 gusting 7 22.2
2016-Feb-05 17:52 192 0 gusting 6 22.2
2016-Feb-05 17:42 192 0 gusting 6 22.2
2016-Feb-05 17:32 192 2 gusting 8 22.2
2016-Feb-05 17:22 196 1 gusting 8 22.2
2016-Feb-05 17:12 184 2 gusting 9 22.2
2016-Feb-05 17:02 185 3 gusting 8 22.2
2016-Feb-05 16:52 177 3 gusting 15 22.2
2016-Feb-05 16:42 189 2 gusting 8 22.2
2016-Feb-05 16:32 191 2 gusting 8 22.2
2016-Feb-05 16:22 194 3 gusting 9 22.8
2016-Feb-05 16:12 202 3 gusting 9 22.8
2016-Feb-05 16:02 176 5 gusting 13 22.8
2016-Feb-05 15:52 168 6 gusting 18 22.8
2016-Feb-05 15:42 183 3 gusting 8 22.2
2016-Feb-05 15:32 182 6 gusting 14 22.2
2016-Feb-05 15:22 164 2 gusting 9 22.8
2016-Feb-05 15:12 178 3 gusting 14 22.8
2016-Feb-05 15:02 171 5 gusting 10 22.8
2016-Feb-05 14:52 160 2 gusting 9 22.8
2016-Feb-05 14:42 155 3 gusting 9 22.8
2016-Feb-05 14:32 187 2 gusting 10 22.8
2016-Feb-05 14:22 152 5 gusting 13 22.8
2016-Feb-05 14:12 159 7 gusting 17 23.3
2016-Feb-05 14:02 186 5 gusting 12 23.9
2016-Feb-05 13:52 178 6 gusting 13 23.9
2016-Feb-05 13:42 170 6 gusting 13 24.4
2016-Feb-05 13:32 173 6 gusting 12 24.4
2016-Feb-05 13:22 165 6 gusting 15 24.4
2016-Feb-05 13:12 163 5 gusting 15 24.4
2016-Feb-05 13:02 166 6 gusting 17 24.4
2016-Feb-05 12:52 174 6 gusting 14 24.4
2016-Feb-05 12:42 175 7 gusting 14 25.0
2016-Feb-05 12:32 166 7 gusting 15 25.0
2016-Feb-05 12:22 174 6 gusting 16 25.0
2016-Feb-05 12:12 173 7 gusting 15 25.0
2016-Feb-05 12:02 173 5 gusting 14 24.4
2016-Feb-05 11:52 179 5 gusting 12 24.4
2016-Feb-05 11:42 166 2 gusting 12 23.9
2016-Feb-05 11:32 174 3 gusting 8 23.9
2016-Feb-05 11:22 194 3 gusting 8 23.3
2016-Feb-05 11:12 182 5 gusting 15 23.3
2016-Feb-05 11:02 176 5 gusting 13 23.3
2016-Feb-05 10:52 162 2 gusting 10 23.3
2016-Feb-05 10:42 164 6 gusting 11 23.3
2016-Feb-05 10:32 176 5 gusting 12 23.9
2016-Feb-05 10:22 176 5 gusting 9 24.4
2016-Feb-05 10:12 176 6 gusting 18 24.4
2016-Feb-05 10:02 158 6 gusting 15 24.4
2016-Feb-05 09:52 165 5 gusting 13 24.4
2016-Feb-05 09:42 174 6 gusting 15 24.4
2016-Feb-05 09:31 173 6 gusting 12 24.4
2016-Feb-05 09:21 165 6 gusting 13 24.4
2016-Feb-05 09:12 170 5 gusting 14 24.4
2016-Feb-05 09:02 173 6 gusting 14 24.4
2016-Feb-05 08:52 177 6 gusting 15 24.4
2016-Feb-05 08:42 165 5 gusting 16 24.4
2016-Feb-05 08:31 177 6 gusting 19 24.4
2016-Feb-05 08:21 170 8 gusting 21 23.9
2016-Feb-05 08:11 173 8 gusting 20 23.9
2016-Feb-05 08:01 179 8 gusting 18 24.4
2016-Feb-05 07:51 179 6 gusting 19 23.9
2016-Feb-05 07:41 175 7 gusting 13 23.9
2016-Feb-05 07:32 172 6 gusting 17 23.9
2016-Feb-05 07:21 178 6 gusting 17 23.9
2016-Feb-05 07:12 176 7 gusting 14 23.9
2016-Feb-05 07:02 179 6 gusting 18 23.9
2016-Feb-05 06:52 174 7 gusting 18 23.9
2016-Feb-05 06:42 168 6 gusting 14 23.9
2016-Feb-05 06:31 163 6 gusting 14 23.9
2016-Feb-05 06:22 160 6 gusting 14 23.9
2016-Feb-05 06:11 168 6 gusting 14 23.9
2016-Feb-05 06:02 171 6 gusting 15 23.3
2016-Feb-05 05:52 183 7 gusting 12 23.9
2016-Feb-05 05:42 179 6 gusting 12 23.9
2016-Feb-05 05:32 177 3 gusting 13 24.4
2016-Feb-05 05:21 173 6 gusting 18 25.0
2016-Feb-05 05:11 178 5 gusting 10 25.0
2016-Feb-05 05:01 183 8 gusting 15 25.0
2016-Feb-05 04:51 178 8 gusting 18 25.0
2016-Feb-05 04:41 178 8 gusting 19 25.6
2016-Feb-05 04:32 178 8 gusting 21 25.6
2016-Feb-05 04:21 173 8 gusting 20 25.6
2016-Feb-05 04:11 169 9 gusting 16 25.6
2016-Feb-05 04:02 170 8 gusting 17 25.6
2016-Feb-05 03:51 169 9 gusting 19 25.6
2016-Feb-05 03:41 177 9 gusting 19 25.6
2016-Feb-05 03:32 176 10 gusting 20 25.6
2016-Feb-05 03:22 174 10 gusting 19 25.6
2016-Feb-05 03:11 178 8 gusting 20 25.6
2016-Feb-05 03:02 175 7 gusting 18 25.6
2016-Feb-05 02:51 181 8 gusting 19 25.6
2016-Feb-05 02:42 177 9 gusting 19 25.6
2016-Feb-05 02:31 175 10 gusting 19 25.6
2016-Feb-05 02:21 181 8 gusting 19 25.6
2016-Feb-05 02:11 177 7 gusting 16 25.6
2016-Feb-05 02:02 178 7 gusting 17 25.6
2016-Feb-05 01:52 179 7 gusting 18 25.6
2016-Feb-05 01:41 173 7 gusting 18 25.6
2016-Feb-05 01:31 176 8 gusting 17 25.6
2016-Feb-05 01:22 181 6 gusting 18 25.6
2016-Feb-05 01:11 179 7 gusting 17 25.0
2016-Feb-05 01:02 183 6 gusting 15 24.4
2016-Feb-05 00:52 174 8 gusting 18 25.0
2016-Feb-05 00:41 183 8 gusting 19 25.0
2016-Feb-05 00:32 179 8 gusting 18 25.0
2016-Feb-05 00:22 176 6 gusting 18 25.0
2016-Feb-05 00:11 176 7 gusting 18 25.0
2016-Feb-05 00:02 173 5 gusting 14 24.4
2016-Feb-04 23:52 172 5 gusting 13 24.4
2016-Feb-04 23:41 179 6 gusting 16 24.4
2016-Feb-04 23:32 176 7 gusting 16 24.4
2016-Feb-04 23:22 185 6 gusting 12 24.4
2016-Feb-04 23:12 173 6 gusting 16 24.4
2016-Feb-04 23:02 188 3 gusting 14 24.4
2016-Feb-04 22:51 182 5 gusting 12 24.4
2016-Feb-04 22:41 186 3 gusting 9 23.9
2016-Feb-04 22:31 188 1 gusting 8 23.3
2016-Feb-04 22:21 188 2 gusting 9 23.3
2016-Feb-04 22:11 188 2 gusting 7 23.3
2016-Feb-04 22:02 181 2 gusting 8 23.3
2016-Feb-04 21:52 176 1 gusting 6 23.3
2016-Feb-04 21:41 176 1 gusting 6 22.8
2016-Feb-04 21:32 175 2 gusting 8 22.8
2016-Feb-04 21:21 172 1 gusting 6 22.8
2016-Feb-04 21:11 172 1 gusting 5 22.2
2016-Feb-04 21:01 172 1 gusting 6 22.2
2016-Feb-04 20:51 201 1 gusting 6 22.2
2016-Feb-04 20:42 204 0 gusting 6 21.7
2016-Feb-04 20:32 204 1 gusting 5 21.7
2016-Feb-04 20:22 204 0 gusting 5 21.7
2016-Feb-04 20:12 204 0 gusting 5 21.7
2016-Feb-04 20:02 204 0 gusting 3 21.7
2016-Feb-04 19:52 204 0 gusting 7 21.7
2016-Feb-04 19:41 204 0 gusting 6 21.7
2016-Feb-04 19:31 201 2 gusting 8 22.2
2016-Feb-04 19:21 200 0 gusting 6 22.2
2016-Feb-04 19:12 200 1 gusting 7 22.2
2016-Feb-04 19:01 199 0 gusting 6 22.2
2016-Feb-04 18:52 198 1 gusting 6 22.2
2016-Feb-04 18:41 199 0 gusting 5 22.2
2016-Feb-04 18:32 199 1 gusting 5 22.2
2016-Feb-04 18:22 198 2 gusting 8 22.2
2016-Feb-04 18:11 198 1 gusting 6 22.2
2016-Feb-04 18:01 199 0 gusting 5 22.2